sensor_id;sensor_type;location;lat;lon;timestamp;noise_LAeq;noise_LA_min;noise_LA_max;noise_LA01;noise_LA95
68279;Laerm;55108;51.790;10.960;2023-07-29T00:02:10;55.20;27.84;73.79;;
68279;Laerm;55108;51.790;10.960;2023-07-29T00:04:36;54.86;27.39;71.95;;
68279;Laerm;55108;51.790;10.960;2023-07-29T00:07:01;56.75;28.31;75.19;;
68279;Laerm;55108;51.790;10.960;2023-07-29T00:09:27;54.17;27.86;67.95;;
68279;Laerm;55108;51.790;10.960;2023-07-29T00:11:53;31.75;27.80;36.16;;
68279;Laerm;55108;51.790;10.960;2023-07-29T00:14:18;31.30;28.56;35.31;;
68279;Laerm;55108;51.790;10.960;2023-07-29T00:16:44;34.41;28.37;46.08;;
68279;Laerm;55108;51.790;10.960;2023-07-29T00:19:10;32.28;27.42;44.25;;
68279;Laerm;55108;51.790;10.960;2023-07-29T00:21:36;30.91;27.44;39.02;;
68279;Laerm;55108;51.790;10.960;2023-07-29T00:24:02;61.51;28.46;75.36;;
68279;Laerm;55108;51.790;10.960;2023-07-29T00:26:28;34.46;27.33;43.09;;
68279;Laerm;55108;51.790;10.960;2023-07-29T00:28:57;29.71;27.70;34.00;;
68279;Laerm;55108;51.790;10.960;2023-07-29T00:31:23;29.51;26.98;37.84;;
68279;Laerm;55108;51.790;10.960;2023-07-29T00:33:49;51.31;27.16;67.55;;
68279;Laerm;55108;51.790;10.960;2023-07-29T00:36:15;40.28;27.41;59.08;;
68279;Laerm;55108;51.790;10.960;2023-07-29T00:38:41;55.87;27.24;73.77;;
68279;Laerm;55108;51.790;10.960;2023-07-29T00:41:07;30.13;27.32;39.72;;
68279;Laerm;55108;51.790;10.960;2023-07-29T00:43:33;61.79;28.02;80.97;;
68279;Laerm;55108;51.790;10.960;2023-07-29T00:45:59;29.20;27.25;37.73;;
68279;Laerm;55108;51.790;10.960;2023-07-29T00:48:25;60.28;28.15;78.71;;
68279;Laerm;55108;51.790;10.960;2023-07-29T00:50:51;28.62;27.16;30.99;;
68279;Laerm;55108;51.790;10.960;2023-07-29T00:53:17;50.11;27.28;67.40;;
68279;Laerm;55108;51.790;10.960;2023-07-29T00:55:43;54.59;27.39;72.94;;
68279;Laerm;55108;51.790;10.960;2023-07-29T00:58:09;45.35;27.59;66.71;;
68279;Laerm;55108;51.790;10.960;2023-07-29T01:00:35;29.34;27.36;33.33;;
68279;Laerm;55108;51.790;10.960;2023-07-29T01:03:01;29.17;27.30;34.13;;
68279;Laerm;55108;51.790;10.960;2023-07-29T01:05:29;30.96;27.44;42.22;;
68279;Laerm;55108;51.790;10.960;2023-07-29T01:08:09;30.90;28.20;39.35;;
68279;Laerm;55108;51.790;10.960;2023-07-29T01:10:46;32.97;29.24;48.07;;
68279;Laerm;55108;51.790;10.960;2023-07-29T01:18:11;36.14;31.72;51.21;;
68279;Laerm;55108;51.790;10.960;2023-07-29T01:20:41;54.93;31.80;74.46;;
68279;Laerm;55108;51.790;10.960;2023-07-29T01:23:07;33.83;30.74;43.00;;
68279;Laerm;55108;51.790;10.960;2023-07-29T01:25:33;33.80;30.49;42.30;;
68279;Laerm;55108;51.790;10.960;2023-07-29T01:27:59;50.87;29.86;67.67;;
68279;Laerm;55108;51.790;10.960;2023-07-29T01:30:33;59.78;30.51;75.47;;
68279;Laerm;55108;51.790;10.960;2023-07-29T01:33:05;54.81;30.01;72.89;;
68279;Laerm;55108;51.790;10.960;2023-07-29T01:35:54;31.99;29.77;40.22;;
68279;Laerm;55108;51.790;10.960;2023-07-29T01:38:24;54.66;29.56;72.40;;
68279;Laerm;55108;51.790;10.960;2023-07-29T01:40:53;54.31;30.73;68.77;;
68279;Laerm;55108;51.790;10.960;2023-07-29T01:43:19;52.62;31.05;68.30;;
68279;Laerm;55108;51.790;10.960;2023-07-29T01:45:48;33.54;30.20;38.69;;
68279;Laerm;55108;51.790;10.960;2023-07-29T01:48:14;33.11;30.32;37.58;;
68279;Laerm;55108;51.790;10.960;2023-07-29T01:50:39;32.01;29.29;41.11;;
68279;Laerm;55108;51.790;10.960;2023-07-29T01:53:05;45.38;29.91;61.85;;
68279;Laerm;55108;51.790;10.960;2023-07-29T01:55:31;44.08;29.18;62.70;;
68279;Laerm;55108;51.790;10.960;2023-07-29T01:57:57;32.10;28.74;41.15;;
68279;Laerm;55108;51.790;10.960;2023-07-29T02:00:23;33.80;30.30;43.72;;
68279;Laerm;55108;51.790;10.960;2023-07-29T02:02:49;33.46;30.12;45.71;;
68279;Laerm;55108;51.790;10.960;2023-07-29T02:05:15;51.19;29.11;67.60;;
68279;Laerm;55108;51.790;10.960;2023-07-29T02:07:40;30.59;28.35;36.61;;
68279;Laerm;55108;51.790;10.960;2023-07-29T02:10:06;54.04;29.31;72.22;;
68279;Laerm;55108;51.790;10.960;2023-07-29T02:12:32;60.24;29.87;79.91;;
68279;Laerm;55108;51.790;10.960;2023-07-29T02:14:58;36.07;29.30;41.63;;
68279;Laerm;55108;51.790;10.960;2023-07-29T02:17:24;36.48;33.02;42.10;;
68279;Laerm;55108;51.790;10.960;2023-07-29T02:19:51;57.80;36.98;75.48;;
68279;Laerm;55108;51.790;10.960;2023-07-29T02:22:17;65.72;33.77;83.93;;
68279;Laerm;55108;51.790;10.960;2023-07-29T02:24:43;54.38;34.60;72.79;;
68279;Laerm;55108;51.790;10.960;2023-07-29T02:27:09;55.69;37.02;73.44;;
68279;Laerm;55108;51.790;10.960;2023-07-29T02:29:35;41.44;35.01;48.87;;
68279;Laerm;55108;51.790;10.960;2023-07-29T02:32:01;52.02;32.56;68.73;;
68279;Laerm;55108;51.790;10.960;2023-07-29T02:34:27;58.62;29.75;74.08;;
68279;Laerm;55108;51.790;10.960;2023-07-29T02:36:53;34.52;29.26;48.41;;
68279;Laerm;55108;51.790;10.960;2023-07-29T02:39:18;51.12;28.94;66.88;;
68279;Laerm;55108;51.790;10.960;2023-07-29T02:41:44;40.28;28.23;61.13;;
68279;Laerm;55108;51.790;10.960;2023-07-29T02:44:10;61.95;28.55;83.18;;
68279;Laerm;55108;51.790;10.960;2023-07-29T02:46:36;52.94;27.14;68.90;;
68279;Laerm;55108;51.790;10.960;2023-07-29T02:49:02;31.80;27.13;46.79;;
68279;Laerm;55108;51.790;10.960;2023-07-29T02:51:28;56.49;27.39;72.44;;
68279;Laerm;55108;51.790;10.960;2023-07-29T02:53:54;29.97;26.94;46.41;;
68279;Laerm;55108;51.790;10.960;2023-07-29T02:56:20;51.42;27.01;68.19;;
68279;Laerm;55108;51.790;10.960;2023-07-29T02:58:45;59.92;27.81;77.50;;
68279;Laerm;55108;51.790;10.960;2023-07-29T03:01:11;35.18;27.36;52.76;;
68279;Laerm;55108;51.790;10.960;2023-07-29T03:03:37;53.71;28.03;71.84;;
68279;Laerm;55108;51.790;10.960;2023-07-29T03:06:04;58.60;28.14;75.74;;
68279;Laerm;55108;51.790;10.960;2023-07-29T03:08:30;32.89;29.09;40.31;;
68279;Laerm;55108;51.790;10.960;2023-07-29T03:10:56;33.06;28.99;41.04;;
68279;Laerm;55108;51.790;10.960;2023-07-29T03:13:22;59.13;31.30;72.78;;
68279;Laerm;55108;51.790;10.960;2023-07-29T03:15:48;62.05;29.56;79.20;;
68279;Laerm;55108;51.790;10.960;2023-07-29T03:18:14;60.22;28.83;78.40;;
68279;Laerm;55108;51.790;10.960;2023-07-29T03:20:40;55.10;27.65;71.39;;
68279;Laerm;55108;51.790;10.960;2023-07-29T03:23:06;59.41;28.83;76.04;;
68279;Laerm;55108;51.790;10.960;2023-07-29T03:25:31;59.84;28.36;78.53;;
68279;Laerm;55108;51.790;10.960;2023-07-29T03:27:57;57.07;27.87;71.16;;
68279;Laerm;55108;51.790;10.960;2023-07-29T03:30:23;58.70;29.14;74.39;;
68279;Laerm;55108;51.790;10.960;2023-07-29T03:32:49;54.60;28.16;73.59;;
68279;Laerm;55108;51.790;10.960;2023-07-29T03:35:15;59.69;28.31;78.25;;
68279;Laerm;55108;51.790;10.960;2023-07-29T03:37:40;53.23;28.92;67.56;;
68279;Laerm;55108;51.790;10.960;2023-07-29T03:40:06;57.75;32.14;74.29;;
68279;Laerm;55108;51.790;10.960;2023-07-29T03:42:32;59.04;30.45;76.73;;
68279;Laerm;55108;51.790;10.960;2023-07-29T03:44:58;54.29;27.77;69.70;;
68279;Laerm;55108;51.790;10.960;2023-07-29T03:47:24;62.10;32.09;78.98;;
68279;Laerm;55108;51.790;10.960;2023-07-29T03:49:50;59.49;28.61;72.81;;
68279;Laerm;55108;51.790;10.960;2023-07-29T03:52:15;59.55;33.92;74.22;;
68279;Laerm;55108;51.790;10.960;2023-07-29T03:54:41;36.91;29.87;46.35;;
68279;Laerm;55108;51.790;10.960;2023-07-29T03:57:07;65.46;32.04;84.17;;
68279;Laerm;55108;51.790;10.960;2023-07-29T03:59:33;61.30;35.22;75.90;;
68279;Laerm;55108;51.790;10.960;2023-07-29T04:01:58;54.87;29.08;68.30;;
68279;Laerm;55108;51.790;10.960;2023-07-29T04:04:24;60.97;32.43;76.46;;
68279;Laerm;55108;51.790;10.960;2023-07-29T04:06:50;54.20;30.80;70.59;;
68279;Laerm;55108;51.790;10.960;2023-07-29T04:09:15;63.13;32.05;77.61;;
68279;Laerm;55108;51.790;10.960;2023-07-29T04:11:41;57.89;28.97;72.63;;
68279;Laerm;55108;51.790;10.960;2023-07-29T04:14:07;53.15;29.09;71.60;;
68279;Laerm;55108;51.790;10.960;2023-07-29T04:16:33;55.03;30.11;71.12;;
68279;Laerm;55108;51.790;10.960;2023-07-29T04:18:58;53.35;31.15;68.24;;
68279;Laerm;55108;51.790;10.960;2023-07-29T04:21:24;57.30;30.18;71.11;;
68279;Laerm;55108;51.790;10.960;2023-07-29T04:23:50;60.04;30.03;74.93;;
68279;Laerm;55108;51.790;10.960;2023-07-29T04:26:15;60.94;31.26;77.26;;
68279;Laerm;55108;51.790;10.960;2023-07-29T04:28:41;63.00;30.56;79.50;;
68279;Laerm;55108;51.790;10.960;2023-07-29T04:31:08;62.50;33.51;77.11;;
68279;Laerm;55108;51.790;10.960;2023-07-29T04:33:33;62.83;29.88;81.28;;
68279;Laerm;55108;51.790;10.960;2023-07-29T04:35:59;54.78;28.68;68.73;;
68279;Laerm;55108;51.790;10.960;2023-07-29T04:38:29;57.56;27.95;72.88;;
68279;Laerm;55108;51.790;10.960;2023-07-29T04:40:55;58.47;30.24;78.75;;
68279;Laerm;55108;51.790;10.960;2023-07-29T04:43:21;61.53;30.17;77.16;;
68279;Laerm;55108;51.790;10.960;2023-07-29T04:45:47;37.31;28.67;48.41;;
68279;Laerm;55108;51.790;10.960;2023-07-29T04:48:13;58.15;29.04;76.16;;
68279;Laerm;55108;51.790;10.960;2023-07-29T04:50:38;62.44;30.45;75.13;;
68279;Laerm;55108;51.790;10.960;2023-07-29T04:53:04;61.69;36.24;74.74;;
68279;Laerm;55108;51.790;10.960;2023-07-29T04:55:30;61.07;29.68;76.27;;
68279;Laerm;55108;51.790;10.960;2023-07-29T04:57:56;58.50;29.48;74.80;;
68279;Laerm;55108;51.790;10.960;2023-07-29T05:00:22;54.54;29.98;69.27;;
68279;Laerm;55108;51.790;10.960;2023-07-29T05:02:47;57.80;31.12;75.11;;
68279;Laerm;55108;51.790;10.960;2023-07-29T05:05:13;65.66;30.86;80.22;;
68279;Laerm;55108;51.790;10.960;2023-07-29T05:07:39;59.87;29.78;75.00;;
68279;Laerm;55108;51.790;10.960;2023-07-29T05:10:05;63.24;31.47;79.65;;
68279;Laerm;55108;51.790;10.960;2023-07-29T05:12:31;61.85;30.60;73.55;;
68279;Laerm;55108;51.790;10.960;2023-07-29T05:14:57;60.54;30.38;73.05;;
68279;Laerm;55108;51.790;10.960;2023-07-29T05:17:23;64.06;33.25;74.78;;
68279;Laerm;55108;51.790;10.960;2023-07-29T05:19:49;64.08;32.52;77.43;;
68279;Laerm;55108;51.790;10.960;2023-07-29T05:22:14;64.28;33.98;78.03;;
68279;Laerm;55108;51.790;10.960;2023-07-29T05:24:40;60.20;29.55;73.48;;
68279;Laerm;55108;51.790;10.960;2023-07-29T05:27:06;49.85;29.95;67.28;;
68279;Laerm;55108;51.790;10.960;2023-07-29T05:29:33;61.44;31.61;72.40;;
68279;Laerm;55108;51.790;10.960;2023-07-29T05:31:59;62.26;40.53;72.88;;
68279;Laerm;55108;51.790;10.960;2023-07-29T05:34:25;64.52;36.28;77.20;;
68279;Laerm;55108;51.790;10.960;2023-07-29T05:36:50;63.62;38.06;75.68;;
68279;Laerm;55108;51.790;10.960;2023-07-29T05:39:16;58.18;32.74;71.48;;
68279;Laerm;55108;51.790;10.960;2023-07-29T05:41:42;66.88;41.98;80.91;;
68279;Laerm;55108;51.790;10.960;2023-07-29T05:44:07;62.25;35.77;75.22;;
68279;Laerm;55108;51.790;10.960;2023-07-29T05:46:33;61.73;30.63;76.79;;
68279;Laerm;55108;51.790;10.960;2023-07-29T05:48:59;62.37;32.32;74.26;;
68279;Laerm;55108;51.790;10.960;2023-07-29T05:51:25;64.41;39.36;76.30;;
68279;Laerm;55108;51.790;10.960;2023-07-29T05:53:50;67.77;50.40;86.50;;
68279;Laerm;55108;51.790;10.960;2023-07-29T05:56:16;66.61;49.56;91.11;;
68279;Laerm;55108;51.790;10.960;2023-07-29T05:58:42;67.31;49.65;81.38;;
68279;Laerm;55108;51.790;10.960;2023-07-29T06:01:07;77.14;55.95;84.66;;
68279;Laerm;55108;51.790;10.960;2023-07-29T06:03:33;77.46;54.88;92.88;;
68279;Laerm;55108;51.790;10.960;2023-07-29T06:05:59;62.60;44.18;78.71;;
68279;Laerm;55108;51.790;10.960;2023-07-29T06:08:25;62.87;43.98;73.82;;
68279;Laerm;55108;51.790;10.960;2023-07-29T06:10:53;64.43;40.43;75.67;;
68279;Laerm;55108;51.790;10.960;2023-07-29T06:13:19;62.93;40.49;73.08;;
68279;Laerm;55108;51.790;10.960;2023-07-29T06:15:44;61.65;35.07;74.96;;
68279;Laerm;55108;51.790;10.960;2023-07-29T06:18:10;65.23;37.42;77.06;;
68279;Laerm;55108;51.790;10.960;2023-07-29T06:20:36;64.22;43.74;76.57;;
68279;Laerm;55108;51.790;10.960;2023-07-29T06:23:02;63.69;44.81;73.80;;
68279;Laerm;55108;51.790;10.960;2023-07-29T06:25:28;65.65;46.79;78.46;;
68279;Laerm;55108;51.790;10.960;2023-07-29T06:27:53;67.08;44.65;78.38;;
68279;Laerm;55108;51.790;10.960;2023-07-29T06:30:19;67.48;38.47;78.79;;
68279;Laerm;55108;51.790;10.960;2023-07-29T06:32:45;68.14;38.32;79.53;;
68279;Laerm;55108;51.790;10.960;2023-07-29T06:35:10;67.87;43.58;78.02;;
68279;Laerm;55108;51.790;10.960;2023-07-29T06:37:36;66.24;40.03;79.33;;
68279;Laerm;55108;51.790;10.960;2023-07-29T06:40:02;64.14;36.72;78.80;;
68279;Laerm;55108;51.790;10.960;2023-07-29T06:42:28;64.93;39.65;76.87;;
68279;Laerm;55108;51.790;10.960;2023-07-29T06:44:54;66.02;35.65;78.00;;
68279;Laerm;55108;51.790;10.960;2023-07-29T06:47:19;66.59;39.41;77.31;;
68279;Laerm;55108;51.790;10.960;2023-07-29T06:49:45;67.80;34.72;80.97;;
68279;Laerm;55108;51.790;10.960;2023-07-29T06:52:11;66.61;40.56;77.89;;
68279;Laerm;55108;51.790;10.960;2023-07-29T06:54:37;66.65;36.62;81.14;;
68279;Laerm;55108;51.790;10.960;2023-07-29T06:57:03;64.25;35.91;75.51;;
68279;Laerm;55108;51.790;10.960;2023-07-29T06:59:28;66.14;41.12;75.30;;
68279;Laerm;55108;51.790;10.960;2023-07-29T07:01:54;64.05;39.06;74.75;;
68279;Laerm;55108;51.790;10.960;2023-07-29T07:04:20;67.05;46.68;76.01;;
68279;Laerm;55108;51.790;10.960;2023-07-29T07:06:46;67.52;45.44;78.11;;
68279;Laerm;55108;51.790;10.960;2023-07-29T07:09:11;63.74;36.89;74.76;;
68279;Laerm;55108;51.790;10.960;2023-07-29T07:11:37;64.49;35.87;75.05;;
68279;Laerm;55108;51.790;10.960;2023-07-29T07:14:03;65.82;36.85;76.86;;
68279;Laerm;55108;51.790;10.960;2023-07-29T07:16:28;66.91;40.13;76.28;;
68279;Laerm;55108;51.790;10.960;2023-07-29T07:18:55;66.88;42.04;77.72;;
68279;Laerm;55108;51.790;10.960;2023-07-29T07:21:21;66.76;41.07;75.64;;
68279;Laerm;55108;51.790;10.960;2023-07-29T07:23:48;67.26;37.86;76.85;;
68279;Laerm;55108;51.790;10.960;2023-07-29T07:26:14;66.34;41.46;78.10;;
68279;Laerm;55108;51.790;10.960;2023-07-29T07:28:40;66.40;42.30;75.16;;
68279;Laerm;55108;51.790;10.960;2023-07-29T07:31:05;67.28;41.29;76.50;;
68279;Laerm;55108;51.790;10.960;2023-07-29T07:33:31;67.62;44.79;76.56;;
68279;Laerm;55108;51.790;10.960;2023-07-29T07:35:57;66.54;44.02;76.40;;
68279;Laerm;55108;51.790;10.960;2023-07-29T07:38:23;67.67;49.70;75.82;;
68279;Laerm;55108;51.790;10.960;2023-07-29T07:40:52;68.75;48.95;78.12;;
68279;Laerm;55108;51.790;10.960;2023-07-29T07:43:19;67.50;44.86;78.17;;
68279;Laerm;55108;51.790;10.960;2023-07-29T07:45:44;64.99;39.07;75.92;;
68279;Laerm;55108;51.790;10.960;2023-07-29T07:48:10;66.91;46.69;77.22;;
68279;Laerm;55108;51.790;10.960;2023-07-29T07:50:38;67.11;46.40;76.85;;
68279;Laerm;55108;51.790;10.960;2023-07-29T07:53:03;66.54;42.57;76.16;;
68279;Laerm;55108;51.790;10.960;2023-07-29T07:55:29;67.25;38.75;74.82;;
68279;Laerm;55108;51.790;10.960;2023-07-29T07:57:55;65.58;37.85;76.45;;
68279;Laerm;55108;51.790;10.960;2023-07-29T08:00:20;66.40;40.11;73.64;;
68279;Laerm;55108;51.790;10.960;2023-07-29T08:02:46;68.53;49.69;76.40;;
68279;Laerm;55108;51.790;10.960;2023-07-29T08:05:12;65.51;41.27;76.19;;
68279;Laerm;55108;51.790;10.960;2023-07-29T08:07:38;67.08;41.62;79.65;;
68279;Laerm;55108;51.790;10.960;2023-07-29T08:10:03;66.71;40.25;79.52;;
68279;Laerm;55108;51.790;10.960;2023-07-29T08:12:29;69.59;49.17;76.69;;
68279;Laerm;55108;51.790;10.960;2023-07-29T08:14:55;69.14;46.13;83.25;;
68279;Laerm;55108;51.790;10.960;2023-07-29T08:17:21;65.35;40.60;75.01;;
68279;Laerm;55108;51.790;10.960;2023-07-29T08:19:46;66.94;44.42;76.42;;
68279;Laerm;55108;51.790;10.960;2023-07-29T08:22:12;66.37;43.76;77.03;;
68279;Laerm;55108;51.790;10.960;2023-07-29T08:24:38;64.65;41.19;74.67;;
68279;Laerm;55108;51.790;10.960;2023-07-29T08:27:04;67.62;47.47;75.46;;
68279;Laerm;55108;51.790;10.960;2023-07-29T08:29:29;68.17;49.05;75.51;;
68279;Laerm;55108;51.790;10.960;2023-07-29T08:31:55;65.75;47.72;76.11;;
68279;Laerm;55108;51.790;10.960;2023-07-29T08:34:21;66.96;46.70;75.64;;
68279;Laerm;55108;51.790;10.960;2023-07-29T08:36:47;67.80;43.48;77.90;;
68279;Laerm;55108;51.790;10.960;2023-07-29T08:39:12;69.13;52.81;75.67;;
68279;Laerm;55108;51.790;10.960;2023-07-29T08:41:43;67.38;37.85;77.08;;
68279;Laerm;55108;51.790;10.960;2023-07-29T08:44:23;66.70;44.82;75.24;;
68279;Laerm;55108;51.790;10.960;2023-07-29T08:46:51;69.54;46.17;81.91;;
68279;Laerm;55108;51.790;10.960;2023-07-29T08:49:19;67.53;47.75;77.02;;
68279;Laerm;55108;51.790;10.960;2023-07-29T08:51:46;68.70;49.67;77.12;;
68279;Laerm;55108;51.790;10.960;2023-07-29T08:54:12;64.52;45.14;72.87;;
68279;Laerm;55108;51.790;10.960;2023-07-29T08:56:40;68.72;48.42;78.09;;
68279;Laerm;55108;51.790;10.960;2023-07-29T08:59:06;66.45;39.18;75.85;;
68279;Laerm;55108;51.790;10.960;2023-07-29T09:01:32;66.72;47.13;75.96;;
68279;Laerm;55108;51.790;10.960;2023-07-29T09:03:58;66.59;40.67;79.25;;
68279;Laerm;55108;51.790;10.960;2023-07-29T09:06:24;67.63;42.68;76.46;;
68279;Laerm;55108;51.790;10.960;2023-07-29T09:08:51;68.44;43.13;77.91;;
68279;Laerm;55108;51.790;10.960;2023-07-29T09:11:16;64.97;40.16;74.49;;
68279;Laerm;55108;51.790;10.960;2023-07-29T09:13:43;67.47;48.15;75.86;;
68279;Laerm;55108;51.790;10.960;2023-07-29T09:16:09;67.76;44.59;76.85;;
68279;Laerm;55108;51.790;10.960;2023-07-29T09:18:35;67.80;47.56;76.47;;
68279;Laerm;55108;51.790;10.960;2023-07-29T09:21:00;68.35;47.04;75.08;;
68279;Laerm;55108;51.790;10.960;2023-07-29T09:23:26;67.33;43.49;74.80;;
68279;Laerm;55108;51.790;10.960;2023-07-29T09:26:00;66.29;40.42;74.75;;
68279;Laerm;55108;51.790;10.960;2023-07-29T09:28:26;67.52;45.86;77.03;;
68279;Laerm;55108;51.790;10.960;2023-07-29T09:30:52;65.51;41.00;73.93;;
68279;Laerm;55108;51.790;10.960;2023-07-29T09:33:18;65.65;41.72;75.77;;
68279;Laerm;55108;51.790;10.960;2023-07-29T09:35:44;68.55;45.48;81.59;;
68279;Laerm;55108;51.790;10.960;2023-07-29T09:38:13;65.22;43.50;75.29;;
68279;Laerm;55108;51.790;10.960;2023-07-29T09:40:40;66.65;39.44;79.14;;
68279;Laerm;55108;51.790;10.960;2023-07-29T09:43:07;66.68;45.80;79.49;;
68279;Laerm;55108;51.790;10.960;2023-07-29T09:45:33;66.13;43.10;75.50;;
68279;Laerm;55108;51.790;10.960;2023-07-29T09:48:00;67.98;36.69;79.64;;
68279;Laerm;55108;51.790;10.960;2023-07-29T09:50:26;64.47;39.09;76.09;;
68279;Laerm;55108;51.790;10.960;2023-07-29T09:52:53;67.80;46.58;77.42;;
68279;Laerm;55108;51.790;10.960;2023-07-29T09:55:22;66.24;44.84;74.45;;
68279;Laerm;55108;51.790;10.960;2023-07-29T09:57:52;67.66;48.44;77.73;;
68279;Laerm;55108;51.790;10.960;2023-07-29T10:00:18;67.91;42.38;76.62;;
68279;Laerm;55108;51.790;10.960;2023-07-29T10:02:44;66.55;43.62;75.00;;
68279;Laerm;55108;51.790;10.960;2023-07-29T10:05:10;66.72;44.00;75.79;;
68279;Laerm;55108;51.790;10.960;2023-07-29T10:07:39;67.30;45.21;75.75;;
68279;Laerm;55108;51.790;10.960;2023-07-29T10:10:05;64.15;38.20;74.95;;
68279;Laerm;55108;51.790;10.960;2023-07-29T10:12:32;65.87;40.87;76.14;;
68279;Laerm;55108;51.790;10.960;2023-07-29T10:15:02;67.72;44.39;77.17;;
68279;Laerm;55108;51.790;10.960;2023-07-29T10:17:28;63.88;41.37;74.49;;
68279;Laerm;55108;51.790;10.960;2023-07-29T10:19:55;67.88;44.91;78.73;;
68279;Laerm;55108;51.790;10.960;2023-07-29T10:22:22;64.88;44.38;73.68;;
68279;Laerm;55108;51.790;10.960;2023-07-29T10:24:50;67.38;39.02;78.62;;
68279;Laerm;55108;51.790;10.960;2023-07-29T10:27:17;65.93;42.70;81.12;;
68279;Laerm;55108;51.790;10.960;2023-07-29T10:29:43;66.83;43.55;76.82;;
68279;Laerm;55108;51.790;10.960;2023-07-29T10:32:09;64.34;41.69;75.78;;
68279;Laerm;55108;51.790;10.960;2023-07-29T10:34:36;66.01;41.30;79.63;;
68279;Laerm;55108;51.790;10.960;2023-07-29T10:37:03;65.31;40.51;74.51;;
68279;Laerm;55108;51.790;10.960;2023-07-29T10:39:37;64.55;40.70;74.89;;
68279;Laerm;55108;51.790;10.960;2023-07-29T10:42:05;64.11;41.12;77.98;;
68279;Laerm;55108;51.790;10.960;2023-07-29T10:47:49;64.49;39.76;76.00;;
68279;Laerm;55108;51.790;10.960;2023-07-29T10:49:59;67.41;42.67;77.04;;
68279;Laerm;55108;51.790;10.960;2023-07-29T10:52:29;67.44;42.11;75.34;;
68279;Laerm;55108;51.790;10.960;2023-07-29T10:54:55;64.23;41.05;76.43;;
68279;Laerm;55108;51.790;10.960;2023-07-29T10:57:33;67.40;41.89;78.51;;
68279;Laerm;55108;51.790;10.960;2023-07-29T10:59:59;63.78;42.45;76.67;;
68279;Laerm;55108;51.790;10.960;2023-07-29T11:02:28;66.89;43.44;75.85;;
68279;Laerm;55108;51.790;10.960;2023-07-29T11:04:54;67.92;39.19;77.90;;
68279;Laerm;55108;51.790;10.960;2023-07-29T11:07:20;60.70;36.40;74.83;;
68279;Laerm;55108;51.790;10.960;2023-07-29T11:09:59;66.93;46.59;75.52;;
68279;Laerm;55108;51.790;10.960;2023-07-29T11:15:04;67.09;44.76;76.31;;
68279;Laerm;55108;51.790;10.960;2023-07-29T11:17:30;65.94;40.75;75.77;;
68279;Laerm;55108;51.790;10.960;2023-07-29T11:19:58;65.95;50.10;74.52;;
68279;Laerm;55108;51.790;10.960;2023-07-29T11:22:25;67.39;43.39;80.07;;
68279;Laerm;55108;51.790;10.960;2023-07-29T11:24:51;66.44;43.23;80.47;;
68279;Laerm;55108;51.790;10.960;2023-07-29T11:27:17;65.75;47.81;75.86;;
68279;Laerm;55108;51.790;10.960;2023-07-29T11:29:43;65.39;43.48;74.96;;
68279;Laerm;55108;51.790;10.960;2023-07-29T11:32:09;64.73;43.40;73.58;;
68279;Laerm;55108;51.790;10.960;2023-07-29T11:34:35;66.05;42.74;77.85;;
68279;Laerm;55108;51.790;10.960;2023-07-29T11:37:00;67.72;46.19;75.30;;
68279;Laerm;55108;51.790;10.960;2023-07-29T11:39:26;66.25;41.79;77.22;;
68279;Laerm;55108;51.790;10.960;2023-07-29T11:41:52;64.88;39.33;74.95;;
68279;Laerm;55108;51.790;10.960;2023-07-29T11:44:18;66.87;42.75;76.93;;
68279;Laerm;55108;51.790;10.960;2023-07-29T11:46:44;68.22;42.26;78.12;;
68279;Laerm;55108;51.790;10.960;2023-07-29T11:49:10;68.01;39.28;84.05;;
68279;Laerm;55108;51.790;10.960;2023-07-29T11:51:36;64.42;39.65;74.56;;
68279;Laerm;55108;51.790;10.960;2023-07-29T11:54:02;67.87;44.45;80.57;;
68279;Laerm;55108;51.790;10.960;2023-07-29T11:56:27;68.26;47.07;79.89;;
68279;Laerm;55108;51.790;10.960;2023-07-29T11:58:55;67.28;43.99;78.44;;
68279;Laerm;55108;51.790;10.960;2023-07-29T12:01:21;66.68;46.99;77.53;;
68279;Laerm;55108;51.790;10.960;2023-07-29T12:03:47;66.43;42.61;77.02;;
68279;Laerm;55108;51.790;10.960;2023-07-29T12:06:13;62.80;39.91;75.31;;
68279;Laerm;55108;51.790;10.960;2023-07-29T12:08:39;67.27;44.06;75.61;;
68279;Laerm;55108;51.790;10.960;2023-07-29T12:11:05;69.16;43.60;86.82;;
68279;Laerm;55108;51.790;10.960;2023-07-29T12:13:32;66.90;44.61;76.51;;
68279;Laerm;55108;51.790;10.960;2023-07-29T12:16:01;66.13;46.76;76.57;;
68279;Laerm;55108;51.790;10.960;2023-07-29T12:18:30;66.61;47.99;74.72;;
68279;Laerm;55108;51.790;10.960;2023-07-29T12:20:56;66.15;43.74;74.30;;
68279;Laerm;55108;51.790;10.960;2023-07-29T12:23:25;65.47;40.96;75.80;;
68279;Laerm;55108;51.790;10.960;2023-07-29T12:25:51;65.20;37.58;75.10;;
68279;Laerm;55108;51.790;10.960;2023-07-29T12:28:17;73.25;43.92;87.41;;
68279;Laerm;55108;51.790;10.960;2023-07-29T12:30:43;65.04;41.89;76.13;;
68279;Laerm;55108;51.790;10.960;2023-07-29T12:33:09;66.04;43.06;76.51;;
68279;Laerm;55108;51.790;10.960;2023-07-29T12:35:37;65.56;42.93;75.22;;
68279;Laerm;55108;51.790;10.960;2023-07-29T12:38:03;67.59;40.28;79.45;;
68279;Laerm;55108;51.790;10.960;2023-07-29T12:40:29;66.57;41.22;76.32;;
68279;Laerm;55108;51.790;10.960;2023-07-29T12:42:55;66.17;49.72;75.38;;
68279;Laerm;55108;51.790;10.960;2023-07-29T12:45:21;66.77;47.80;76.07;;
68279;Laerm;55108;51.790;10.960;2023-07-29T12:47:51;67.35;40.48;75.96;;
68279;Laerm;55108;51.790;10.960;2023-07-29T12:50:17;67.04;44.01;73.83;;
68279;Laerm;55108;51.790;10.960;2023-07-29T12:52:42;65.90;41.03;75.82;;
68279;Laerm;55108;51.790;10.960;2023-07-29T12:55:08;66.28;39.80;76.12;;
68279;Laerm;55108;51.790;10.960;2023-07-29T12:57:38;65.03;41.39;74.86;;
68279;Laerm;55108;51.790;10.960;2023-07-29T13:00:03;67.09;45.21;81.15;;
68279;Laerm;55108;51.790;10.960;2023-07-29T13:02:29;65.69;39.15;74.70;;
68279;Laerm;55108;51.790;10.960;2023-07-29T13:04:55;65.96;45.35;73.74;;
68279;Laerm;55108;51.790;10.960;2023-07-29T13:07:21;61.43;40.72;75.31;;
68279;Laerm;55108;51.790;10.960;2023-07-29T13:09:46;66.09;44.15;75.87;;
68279;Laerm;55108;51.790;10.960;2023-07-29T13:12:12;66.11;44.11;75.20;;
68279;Laerm;55108;51.790;10.960;2023-07-29T13:14:38;65.35;46.30;76.99;;
68279;Laerm;55108;51.790;10.960;2023-07-29T13:17:04;63.34;42.54;75.34;;
68279;Laerm;55108;51.790;10.960;2023-07-29T13:19:29;66.38;43.54;75.12;;
68279;Laerm;55108;51.790;10.960;2023-07-29T13:21:55;65.76;42.15;77.43;;
68279;Laerm;55108;51.790;10.960;2023-07-29T13:24:21;65.11;41.27;76.34;;
68279;Laerm;55108;51.790;10.960;2023-07-29T13:26:47;65.93;41.90;75.51;;
68279;Laerm;55108;51.790;10.960;2023-07-29T13:29:12;67.69;45.01;82.89;;
68279;Laerm;55108;51.790;10.960;2023-07-29T13:31:38;67.16;48.90;75.80;;
68279;Laerm;55108;51.790;10.960;2023-07-29T13:34:04;66.27;45.85;76.11;;
68279;Laerm;55108;51.790;10.960;2023-07-29T13:36:29;64.87;42.98;76.44;;
68279;Laerm;55108;51.790;10.960;2023-07-29T13:38:55;64.99;40.65;75.56;;